VHHHZPPP

Guest
Details From VHHH - Hong Kong Intl
To ZPPP - Wujiaba
Flight Number -
Tags Generated
Created
Modified
Stats Distance 638 nm / 1,181 km
Max Altitude 0 ft / 0 m
Waypoints 4
Social Downloads 1
Likes 0
Share VATSIM

Download

Looking for another format? Having issues loading an existing format? Contact us
Advertisement - Login to hide

Notes

Generated

Route

VHHH LBN KMG ZPPP

ID Type Via Altitude Latitude Longitude Leg Dist Tot Dist Heading (true) Name
O VHHH APT - 0 ft / 0 m 22.29628˚ 113.89799˚ - 0 nm - -
LBN VOR - 0 ft / 0 m 23.74333˚ 109.21167˚ 273 nm 273 nm 289° / 288° LAIBIN VOR-DME
KMG VOR - 0 ft / 0 m 25.01667˚ 102.73333˚ 362 nm 635 nm 284° / 281° KUNMING VOR-DME
O ZPPP APT - 0 ft / 0 m 24.97939˚ 102.73454˚ 2 nm 637 nm 178° / 178° -

Altitude Profile

Advertisement - Login to hide

Weather


0- 5 10 15 20 25 30 35+ Temperature / ° C

Clouds and Precipitation
Forecast for 2017-12-14 06:00 UTC. Updated an hour ago

Ground ~20,000 ft ~40,000 ft Winds

VHHH

Details ICAO VHHH (HKG)
Name Hong Kong Intl
Region Hong Kong
Timezone Unknown (UTC+0.0)
Stats Elevation 28 ft / 9 m (AMSL)
Location 22.308995° 113.914610°
Runways 2
Magnetic Variation 2.822° W

METAR

VHHH 140230Z 01006KT 9999 FEW035 22/14 Q1019 NOSIG

Decode

TAF

TAF VHHH 132300Z 1400/1506 07010KT 9999 FEW020 SCT035 TX21/1407Z TX22/1506Z TN18/1423Z

Decode

Departure Runways

ID Width Length Bearing (true) Bearing (mag) Surface Threshold Offset Overrun Length
07L 197 ft / 60 m 12,457 ft / 3,797 m 70.79° 73.61° Asphalt 564 ft / 172 m 866 ft / 264 m
07R 197 ft / 60 m 12,458 ft / 3,797 m 70.79° 73.61° Asphalt 525 ft / 160 m 886 ft / 270 m
25L 197 ft / 60 m 12,458 ft / 3,797 m 250.80° 253.62° Asphalt 0 ft / 0 m 840 ft / 256 m
25R 197 ft / 60 m 12,457 ft / 3,797 m 250.80° 253.62° Asphalt 581 ft / 177 m 860 ft / 262 m

ZPPP

Details ICAO ZPPP (KMG)
Name WUJIABA
Region China
Timezone Asia/Chongqing (UTC+8.0)
Stats Elevation 6,217 ft / 1,895 m (AMSL)
Location 24.992362° 102.743538°
Runways 1
Magnetic Variation 1.381° W

METAR

ZPPP 140200Z 02002MPS 340V100 CAVOK 09/07 Q1022 BECMG TL0240 22005MPS

Decode

TAF

Not found

Destination Runways

ID Width Length Bearing (true) Bearing (mag) Surface Threshold Offset Overrun Length
03 148 ft / 45 m 11,183 ft / 3,409 m 32.17° 33.55° Concrete 0 ft / 0 m 197 ft / 60 m
21 148 ft / 45 m 11,183 ft / 3,409 m 212.17° 213.55° Concrete 0 ft / 0 m 197 ft / 60 m

Approach Navaids

Runway Type Ident Frequency Range Bearing (true) Bearing (mag) Slope Elevation
03 Localiser ILR 110.30 MHz 18 nm / 33 km 32.15° 33.53° - 6,217 ft / 1,895 m (AMSL)
03 Glidescope ILR 110.30 MHz 10 nm / 19 km 32.17° 33.55° 3.00° 6,217 ft / 1,895 m (AMSL)
21 Localiser IQB 109.70 MHz 18 nm / 33 km 212.14° 213.52° - 6,217 ft / 1,895 m (AMSL)
21 Glidescope IQB 109.70 MHz 10 nm / 19 km 212.17° 213.55° 3.20° 6,217 ft / 1,895 m (AMSL)

Popular Alternatives